Thursday, May 25, 2017, 8:23 AM EDT

KOFP, Hanover County Municipal

Location: Ashland, VA, United States Lat: 37.7
Local Time: 8:23 AM EDT (12:23 GMT) Lon: -77.433
Time Zone: US/Eastern Elev: 203 ft

Show me the last for .
Show Decoded

2017-05-25 07:54 METAR KOFP 251154Z AUTO 21007KT 10SM OVC008 16/16 A2950 RMK AO2 SLP988 60028
                 70066 T01610156 10167 20150 53005 =
2017-05-25 07:05 METAR KOFP 251105Z AUTO 23004KT 10SM BKN008 BKN110 16/15 A2947 RMK AO2 T01610150
                 =
2017-05-25 06:54 METAR KOFP 251054Z AUTO 24003KT 10SM FEW090 SCT110 16/15 A2947 RMK AO2 RAE0958
                 SLP978 P0001 T01560150 =
2017-05-25 05:54 METAR KOFP 250954Z AUTO 21006KT 8SM -RA SCT004 BKN044 OVC080 17/16 A2948 RMK AO2
                 RAB0856 SLP981 P0018 T01670156 =
2017-05-25 05:49 METAR KOFP 250949Z AUTO 21008KT 3SM RA BR SCT004 BKN015 OVC050 17/16 A2948 RMK
                 AO2 RAB0856 P0018 =
2017-05-25 05:48 METAR KOFP 250948Z AUTO 21008KT 3SM RA BR BKN004 BKN017 OVC031 17/16 A2948 RMK
                 AO2 RAB0856 P0018 =
2017-05-25 05:36 METAR KOFP 250936Z AUTO 09005KT 1 3/4SM +RA BR BKN004 OVC008 16/16 A2946 RMK AO2
                 RAB0856 P0013 T01610161 =
2017-05-25 04:54 METAR KOFP 250854Z AUTO 08004KT 7SM OVC004 16/16 A2947 RMK AO2 RAB0756E43 SLP979
                 P0004 60009 T01560156 56033 =
2017-05-25 04:33 METAR KOFP 250833Z AUTO 09006KT 4SM -RA BR OVC003 16/15 A2948 RMK AO2 RAB0756
                 P0004 T01560150 =
2017-05-25 04:25 METAR KOFP 250825Z AUTO 10004KT 2 1/2SM RA BR OVC003 16/15 A2948 RMK AO2 RAB0756
                 P0003 T01560150 =
2017-05-25 03:54 METAR KOFP 250754Z AUTO VRB04KT 8SM OVC003 15/14 A2949 RMK AO2 RAE02 SLP983
                 P0001 T01500144 =
2017-05-25 02:54 METAR KOFP 250654Z AUTO 07006KT 6SM -RA BR OVC004 15/14 A2953 RMK AO2 SLP997
                 P0004 T01500144 =
2017-05-25 02:44 METAR KOFP 250644Z AUTO 08007KT 5SM -RA BR OVC004 15/14 A2953 RMK AO2 PRESFR
                 P0004 T01500144 =
2017-05-25 02:10 METAR KOFP 250610Z AUTO VRB04KT 5SM RA BR OVC005 15/14 A2957 RMK AO2 P0003
                 T01500144 =
2017-05-25 01:54 METAR KOFP 250554Z AUTO VRB06KT 5SM RA BR OVC004 15/14 A2957 RMK AO2 SLP012
                 P0009 60038 T01500139 10167 20144 56034 =
2017-05-25 01:40 METAR KOFP 250540Z AUTO 10006KT 4SM +RA BR OVC004 15/14 A2958 RMK AO2 P0007
                 T01500144 =
2017-05-25 00:54 METAR KOFP 250454Z AUTO 08006KT 4SM RA BR OVC005 14/14 A2959 RMK AO2 SLP021
                 P0003 T01440139 401780144 =
2017-05-24 23:54 METAR KOFP 250354Z AUTO VRB05KT 8SM -RA OVC007 14/14 A2963 RMK AO2 SLP033 P0004
                 T01440139 =
2017-05-24 22:54 METAR KOFP 250254Z AUTO 10006KT 10SM -RA OVC007 15/14 A2967 RMK AO2 CIG 005V011
                 SLP046 P0004 60022 T01500139 58002 =
2017-05-24 21:54 METAR KOFP 250154Z AUTO VRB05KT 8SM -RA BKN009 16/13 A2967 RMK AO2 LTG DSNT E
                 SLP047 P0017 T01560133 =
2017-05-24 21:35 METAR KOFP 250135Z AUTO VRB05KT 4SM RA BR OVC009 16/14 A2969 RMK AO2 CIG 006V014
                 P0015 T01560139 =
2017-05-24 21:27 METAR KOFP 250127Z AUTO 18005G15KT 2 1/2SM +RA BR OVC010 16/14 A2971 RMK AO2 CIG
                 006V014 PRESRR P0013 T01560139 =
2017-05-24 20:54 METAR KOFP 250054Z AUTO VRB05KT 7SM -RA OVC010 16/14 A2969 RMK AO2 RAB46 SLP053
                 P0001 T01610139 =
2017-05-24 20:13 METAR KOFP 250013Z AUTO 08006G15KT 10SM OVC008 17/14 A2968 RMK AO2 T01670139 =
2017-05-24 19:54 METAR KOFP 242354Z AUTO VRB06KT 10SM OVC011 17/14 A2968 RMK AO2 CIG 009V014
                 SLP048 T01670139 10178 20167 58010 =
2017-05-24 19:07 METAR KOFP 242307Z AUTO 09008KT 10SM FEW007 OVC010 17/14 A2969 RMK AO2 T01670139
                 =
2017-05-24 18:54 METAR KOFP 242254Z AUTO 09005KT 9SM OVC008 17/14 A2970 RMK AO2 CIG 007V013
                 SLP055 T01670139 =
2017-05-24 17:54 METAR KOFP 242154Z AUTO 10007KT 8SM OVC007 17/14 A2969 RMK AO2 SLP052 T01670144
                 =
2017-05-24 17:07 METAR KOFP 242107Z AUTO 08005KT 8SM BKN009 OVC014 17/14 A2970 RMK AO2 CIG
                 008V013 T01720144 =
2017-05-24 16:54 METAR KOFP 242054Z AUTO 07006KT 9SM BKN010 OVC013 17/14 A2971 RMK AO2 SLP058
                 T01720144 58002 =
2017-05-24 16:44 METAR KOFP 242044Z AUTO 08005KT 9SM BKN011 BKN023 OVC030 17/14 A2971 RMK AO2 CIG
                 009V013 T01720144 =
2017-05-24 16:25 METAR KOFP 242025Z AUTO VRB03KT 10SM SCT013 BKN022 OVC031 18/15 A2971 RMK AO2
                 T01780150 =
2017-05-24 15:54 METAR KOFP 241954Z AUTO 09006KT 9SM BKN010 OVC017 17/14 A2971 RMK AO2 CIG
                 010V015 SLP061 T01720144 =
2017-05-24 15:39 METAR KOFP 241939Z AUTO 09004KT 10SM FEW010 OVC017 18/14 A2971 RMK AO2 T01780144
                 =
2017-05-24 14:54 METAR KOFP 241854Z AUTO VRB06KT 10SM BKN014 OVC020 18/14 A2971 RMK AO2 SLP060
                 T01780144 =
2017-05-24 14:49 METAR KOFP 241849Z AUTO 08004KT 10SM OVC016 17/14 A2972 RMK AO2 =
2017-05-24 14:21 METAR KOFP 241821Z AUTO VRB06KT 10SM BKN012 OVC022 18/14 A2973 RMK AO2 T01780144
                 =
2017-05-24 13:54 METAR KOFP 241754Z AUTO VRB04KT 10SM BKN016 OVC024 18/14 A2973 RMK AO2 SLP066
                 60000 T01780144 10178 20150 58003 =
2017-05-24 13:26 METAR KOFP 241726Z AUTO VRB05KT 10SM OVC014 17/14 A2974 RMK AO2 T01720144 =
2017-05-24 12:54 METAR KOFP 241654Z AUTO VRB05KT 10SM FEW009 OVC017 17/14 A2974 RMK AO2 RAE02
                 SLP068 P0000 T01720144 =
2017-05-24 12:45 METAR KOFP 241645Z AUTO 10005KT 10SM SCT009 OVC017 17/14 A2973 RMK AO2 RAE02
                 P0000 T01720144 =
2017-05-24 12:01 METAR KOFP 241601Z AUTO 07003KT 3SM -RA BR BKN007 OVC010 16/14 A2973 RMK AO2 CIG
                 004V008 P0000 T01610144 =
2017-05-24 11:54 METAR KOFP 241554Z AUTO 09004KT 3SM -RA BR BKN010 OVC023 16/14 A2974 RMK AO2
                 RAB52 CIG 008V012 SLP069 P0000 T01610139 =
2017-05-24 11:30 METAR KOFP 241530Z AUTO 11003KT 5SM HZ BKN010 BKN019 OVC023 17/14 A2975 RMK AO2
                 CIG 008V013 T01670139 =
2017-05-24 11:20 METAR KOFP 241520Z AUTO 10004KT 6SM BR BKN009 OVC019 16/14 A2975 RMK AO2
                 T01610139 =
2017-05-24 10:54 METAR KOFP 241454Z AUTO 07004KT 4SM BR SCT006 OVC019 16/14 A2974 RMK AO2
                 RAB12E24 SLP069 P0000 60000 T01610139 50004 =
2017-05-24 10:50 METAR KOFP 241450Z AUTO 06006KT 3SM BR SCT006 BKN017 OVC021 16/14 A2973 RMK AO2
                 RAB12E24 P0000 =
2017-05-24 10:46 METAR KOFP 241446Z AUTO 07006KT 2 1/2SM BR BKN006 OVC015 16/14 A2974 RMK AO2
                 RAB12E24 CIG 005V010 P0000 T01560139 =
2017-05-24 10:36 METAR KOFP 241436Z AUTO 08004KT 2 1/2SM BR SCT006 OVC015 16/14 A2975 RMK AO2
                 RAB12E24 P0000 T01560139 =
2017-05-24 10:22 METAR KOFP 241422Z AUTO 09003KT 2SM -RA BR FEW006 OVC013 16/13 A2975 RMK AO2
                 RAB12 P0000 T01560133 =
2017-05-24 10:17 METAR KOFP 241417Z AUTO 00000KT 1 3/4SM -RA BR BKN013 OVC021 16/14 A2974 RMK AO2
                 RAB12 P0000 T01560139 =
2017-05-24 10:08 METAR KOFP 241408Z AUTO 07003KT 4SM HZ FEW009 BKN013 OVC019 16/13 A2974 RMK AO2
                 T01610133 =
2017-05-24 10:01 METAR KOFP 241401Z AUTO 00000KT 9SM SCT010 BKN017 OVC023 16/14 A2974 RMK AO2
                 T01610139 =
2017-05-24 09:54 METAR KOFP 241354Z AUTO 00000KT 9SM BKN010 BKN017 OVC024 16/14 A2974 RMK AO2 CIG
                 007V014 SLP070 T01610139 =
2017-05-24 08:54 METAR KOFP 241254Z AUTO VRB03KT 10SM OVC012 16/13 A2973 RMK AO2 SLP066 T01560133
                 =
2017-05-24 08:43 METAR KOFP 241243Z AUTO VRB03KT 10SM OVC012 16/13 A2973 RMK AO2 T01560133 =

Support USWX by starting your Amazon purchase here.